• Gossen Metrawatt
  • Camille Bauer

Workshops im Elektrogroßhandel

Diese Workshops werden vom Elektrogroßhandel eigenverantwortlich organisiert.

Die Trainer sind Mitarbeiter der GMC-I Messtechnik bzw. erfahrene selbstständige Referenten und sind stets auf dem neuesten Wissenstand. Hier erfahren Sie, welche Vorschriften einzuhalten sind und wie Sie erforderliche Messungen rationell und kostengünstig durchführen. 

Im Bedarfsfall wenden Sie sich bitte direkt an den angegebenen Ansprechpartner.  

15.01.19 Unielektro D-65760 Eschborn Fr. Oehler 06196/477-232 Hr. Bartelmeß 0100-600
16.01.19 Unielektro D-65760 Eschborn Fr. Oehler 06196/477-232 Hr. Bartelmeß 0701-0702
05.02.19 Unielektro D-55543 Bad Kreuznach Fr. Oehler 06196/477-232 Hr. Bartelmeß 0100-600
06.02.19 Unielektro D-55543 Bad Kreuznach Fr. Oehler 06196/477-232 Hr. Bartelmeß 0701-0702
11.03.19 Unielektro D-04720 Döbeln/Mochau  Fr. Oehler 06196/477-232 Hr. Bartelmeß 0100-600
12.03.19 Unielektro D-04720 Döbeln/Mochau  Fr. Oehler 06196/477-232 Hr. Bartelmeß  0701-0702
13.03.19 Unielektro D-15749 Mittenwalde  Fr. Oehler 06196/477-232   Hr. Bartelmeß 0100-600
14.03.19 Unielektro D-15749 Mittenwalde  Fr. Oehler 06196/477-232   Hr. Bartelmeß  0701-0702
20.03.19 Unielektro D-65760 Eschborn Fr. Oehler 06196/477-232 Hr. Bartelmeß 0100-600
21.03.19 Unielektro D-65760 Eschborn Fr. Oehler 06196/477-232 Hr. Bartelmeß 0701-0702
08.05.19 Unielektro D-35440 Linden Fr. Oehler 06196/477-232 Hr. Bartelmeß 0100-600
09.05.19 Unielektro D-35440 Linden Fr. Oehler 06196/477-232 Hr. Bartelmeß 0701-0702
20.05.19 Unielektro D-51105 Köln Fr. Oehler 06196/477-232 Hr. Bartelmeß 0100-600
21.05.19 Unielektro D-51105 Köln Fr. Oehler 06196/477-232 Hr. Bartelmeß 0701-0702
04.06.19 Unielektro D-65760 Eschborn Fr. Oehler 06196/477-232 Hr. Bartelmeß 0100-600
05.06.19 Unielektro D-65760 Eschborn Fr. Oehler 06196/477-232 Hr. Bartelmeß 0701-0702
25.06.19 FAMO D-41179 Mönchengladbach Fr. Fujera 02161/8992-122 Hr. Bartelmeß 0701-0702
26.06.19 Unielektro D-99098 Erfurt Fr. Oehler 06196/477-232 Hr. Bartelmeß 0100-600
27.06.19 Unielektro  D-99098 Erfurt Fr. Oehler  06196/477-232  Hr. Bartelmeß  0701-0702
03.07.19 Zander D-45141 Essen Hr. Weirich  0201/1704-150 Hr. Bartelmeß 0100-600
04.07.19 Zander  D-45141  Essen Hr. Weirich  0201/1704-150  Hr. Bartelmeß  0701-0702
27.08.19 Unielektro  D-06116 Halle Fr. Oehler  06196/477-232  Hr. Bartelmeß  0100-600
28.08.19 Unielektro  D-06116 Halle Fr. Oehler  06196/477-232  Hr. Bartelmeß  0701-0702
17.09.19 Unielektro D-65760 Eschborn Fr. Oehler  06196/477-232  Hr. Bartelmeß  0100-600
18.09.19 Unielektro D-65760 Eschborn Fr. Oehler  06196/477-232  Hr. Bartelmeß  0701-0702
15.10.19 Unielektro D-56070 Koblenz Fr. Oehler  06196/477-232  Hr. Bartelmeß  0100-600
16.10.19 Unielektro D-56070 Koblenz Fr. Oehler  06196/477-232  Hr. Bartelmeß  0701-0702
17.10.19 FAMO D-52349 Düren Fr. Fujera 02161/8992-122 Hr. Bartelmeß  0701-0702
29.10.19 Unielektro D-65760 Eschborn Fr. Oehler  06196/477-232   Hr. Bartelmeß   0100-600
30.10.19 Unielektro D-65760 Eschborn Fr. Oehler  06196/477-232   Hr. Bartelmeß   0701-0702
20.11.19 FAMO D-41179 Mönchengladbach Fr. Fujera 02161/8992-122 Hr. Bartelmeß   0100-600
21.11.19 Unielektro D-44149 Dortmund Fr. Oehler 06196/477-232   Hr. Bartelmeß   0100-600
22.11.19 Unielektro D-44149 Dortmund Fr. Oehler 06196/477-232  Hr. Bartelmeß   0701-0702
27.11.19 Unielektro D-35440 Linden Fr. Oehler 06196/477-232  Hr. Bartelmeß   0100-600
28.11.19 Unielektro D-35440 Linden Fr. Oehler 06196/477-232  Hr. Bartelmeß   0701-0702
03.12.19 Unielektro D-15749 Döbeln/Mochau Fr. Oehler 06196/477-232  Hr. Bartelmeß   0100-600
04.12.19 Unielektro D-15749 Döbeln/Mochau Fr. Oehler 06196/477-232  Hr. Bartelmeß   0701-0702
05.12.19 Unielektro D-04720 Mittenwalde Fr. Oehler 06196/477-232  Hr. Bartelmeß   0100-600
06.12.19 Unielektro D-04720 Mittenwalde Fr. Oehler 06196/477-232  Hr. Bartelmeß   0701-0702
12.12.19 EBRA D-63924 Kleinheubach Hr. Müller 09371-4098-38 Hr. Bartelmeß   0701-0702
17.12.19 Unielektro D-65760 Eschborn Fr. Oehler 06196/477-232  Hr. Bartelmeß   0100-600
18.12.19 Unielektro D-65760 Eschborn Fr. Oehler 06196/477-232  Hr. Bartelmeß   0701-0702

 

Dialog, Infos und Aktionen: